sensor_id;sensor_type;location;lat;lon;timestamp;temperature;humidity
47845;DHT22;33605;48.822;8.796;2024-01-16T00:00:05;3.00;35.40
47845;DHT22;33605;48.822;8.796;2024-01-16T00:02:30;3.00;35.50
47845;DHT22;33605;48.822;8.796;2024-01-16T00:04:56;3.00;35.50
47845;DHT22;33605;48.822;8.796;2024-01-16T00:07:21;3.00;35.50
47845;DHT22;33605;48.822;8.796;2024-01-16T00:09:47;3.00;35.50
47845;DHT22;33605;48.822;8.796;2024-01-16T00:12:13;3.00;35.50
47845;DHT22;33605;48.822;8.796;2024-01-16T00:14:38;3.10;35.60
47845;DHT22;33605;48.822;8.796;2024-01-16T00:17:05;3.10;35.60
47845;DHT22;33605;48.822;8.796;2024-01-16T00:19:30;3.10;35.60
47845;DHT22;33605;48.822;8.796;2024-01-16T00:21:57;3.10;35.60
47845;DHT22;33605;48.822;8.796;2024-01-16T00:24:23;3.10;35.60
47845;DHT22;33605;48.822;8.796;2024-01-16T00:26:49;3.10;35.60
47845;DHT22;33605;48.822;8.796;2024-01-16T00:29:15;3.00;35.50
47845;DHT22;33605;48.822;8.796;2024-01-16T00:31:41;3.00;35.60
47845;DHT22;33605;48.822;8.796;2024-01-16T00:34:07;3.10;35.60
47845;DHT22;33605;48.822;8.796;2024-01-16T00:36:33;3.10;36.30
47845;DHT22;33605;48.822;8.796;2024-01-16T00:39:01;3.10;35.70
47845;DHT22;33605;48.822;8.796;2024-01-16T00:41:28;3.00;35.60
47845;DHT22;33605;48.822;8.796;2024-01-16T00:43:54;3.00;35.60
47845;DHT22;33605;48.822;8.796;2024-01-16T00:46:23;3.10;35.70
47845;DHT22;33605;48.822;8.796;2024-01-16T00:48:49;3.00;35.60
47845;DHT22;33605;48.822;8.796;2024-01-16T00:51:15;3.10;35.70
47845;DHT22;33605;48.822;8.796;2024-01-16T00:53:44;3.00;35.70
47845;DHT22;33605;48.822;8.796;2024-01-16T00:56:11;3.10;35.80
47845;DHT22;33605;48.822;8.796;2024-01-16T00:58:38;3.00;35.70
47845;DHT22;33605;48.822;8.796;2024-01-16T01:01:04;3.00;35.70
47845;DHT22;33605;48.822;8.796;2024-01-16T01:03:29;3.00;35.80
47845;DHT22;33605;48.822;8.796;2024-01-16T01:05:55;3.10;36.40
47845;DHT22;33605;48.822;8.796;2024-01-16T01:08:21;3.10;35.80
47845;DHT22;33605;48.822;8.796;2024-01-16T01:10:47;3.00;35.70
47845;DHT22;33605;48.822;8.796;2024-01-16T01:13:12;3.10;35.80
47845;DHT22;33605;48.822;8.796;2024-01-16T01:15:38;3.10;35.80
47845;DHT22;33605;48.822;8.796;2024-01-16T01:18:05;3.10;35.80
47845;DHT22;33605;48.822;8.796;2024-01-16T01:20:32;3.10;35.80
47845;DHT22;33605;48.822;8.796;2024-01-16T01:22:57;3.10;35.80
47845;DHT22;33605;48.822;8.796;2024-01-16T01:25:24;3.10;35.80
47845;DHT22;33605;48.822;8.796;2024-01-16T01:27:52;3.20;35.90
47845;DHT22;33605;48.822;8.796;2024-01-16T01:30:17;3.20;35.90
47845;DHT22;33605;48.822;8.796;2024-01-16T01:32:44;3.20;36.00
47845;DHT22;33605;48.822;8.796;2024-01-16T01:35:10;3.20;36.00
47845;DHT22;33605;48.822;8.796;2024-01-16T01:37:37;3.20;35.90
47845;DHT22;33605;48.822;8.796;2024-01-16T01:40:03;3.20;35.90
47845;DHT22;33605;48.822;8.796;2024-01-16T01:42:28;3.20;35.90
47845;DHT22;33605;48.822;8.796;2024-01-16T01:44:55;3.20;36.70
47845;DHT22;33605;48.822;8.796;2024-01-16T01:47:20;3.20;36.00
47845;DHT22;33605;48.822;8.796;2024-01-16T01:49:47;3.20;36.10
47845;DHT22;33605;48.822;8.796;2024-01-16T01:52:13;3.20;36.10
47845;DHT22;33605;48.822;8.796;2024-01-16T01:54:40;3.20;36.20
47845;DHT22;33605;48.822;8.796;2024-01-16T01:57:07;3.20;36.10
47845;DHT22;33605;48.822;8.796;2024-01-16T01:59:34;3.10;36.00
47845;DHT22;33605;48.822;8.796;2024-01-16T02:02:01;3.10;36.00
47845;DHT22;33605;48.822;8.796;2024-01-16T02:04:29;3.10;36.10
47845;DHT22;33605;48.822;8.796;2024-01-16T02:06:56;3.10;36.10
47845;DHT22;33605;48.822;8.796;2024-01-16T02:09:23;3.10;36.10
47845;DHT22;33605;48.822;8.796;2024-01-16T02:11:49;3.10;36.10
47845;DHT22;33605;48.822;8.796;2024-01-16T02:14:14;3.10;36.10
47845;DHT22;33605;48.822;8.796;2024-01-16T02:16:41;3.10;36.20
47845;DHT22;33605;48.822;8.796;2024-01-16T02:19:10;3.10;36.20
47845;DHT22;33605;48.822;8.796;2024-01-16T02:21:44;3.00;36.10
47845;DHT22;33605;48.822;8.796;2024-01-16T02:24:17;3.00;36.10
47845;DHT22;33605;48.822;8.796;2024-01-16T02:26:43;3.00;36.10
47845;DHT22;33605;48.822;8.796;2024-01-16T02:29:09;3.00;36.10
47845;DHT22;33605;48.822;8.796;2024-01-16T02:31:37;3.00;36.10
47845;DHT22;33605;48.822;8.796;2024-01-16T02:34:03;3.00;36.10
47845;DHT22;33605;48.822;8.796;2024-01-16T02:36:30;2.90;36.00
47845;DHT22;33605;48.822;8.796;2024-01-16T02:38:59;2.90;36.00
47845;DHT22;33605;48.822;8.796;2024-01-16T02:41:24;2.90;36.10
47845;DHT22;33605;48.822;8.796;2024-01-16T02:43:51;2.90;36.10
47845;DHT22;33605;48.822;8.796;2024-01-16T02:46:16;2.90;36.20
47845;DHT22;33605;48.822;8.796;2024-01-16T02:48:42;2.80;36.10
47845;DHT22;33605;48.822;8.796;2024-01-16T02:51:09;2.80;36.10
47845;DHT22;33605;48.822;8.796;2024-01-16T02:53:35;2.80;36.00
47845;DHT22;33605;48.822;8.796;2024-01-16T02:56:01;2.80;36.10
47845;DHT22;33605;48.822;8.796;2024-01-16T02:58:27;2.70;36.00
47845;DHT22;33605;48.822;8.796;2024-01-16T03:00:53;2.70;36.10
47845;DHT22;33605;48.822;8.796;2024-01-16T03:03:19;2.70;36.10
47845;DHT22;33605;48.822;8.796;2024-01-16T03:05:46;2.60;36.00
47845;DHT22;33605;48.822;8.796;2024-01-16T03:08:12;2.60;36.00
47845;DHT22;33605;48.822;8.796;2024-01-16T03:10:37;2.50;35.90
47845;DHT22;33605;48.822;8.796;2024-01-16T03:13:03;2.50;35.90
47845;DHT22;33605;48.822;8.796;2024-01-16T03:15:29;2.50;35.90
47845;DHT22;33605;48.822;8.796;2024-01-16T03:17:58;2.50;35.90
47845;DHT22;33605;48.822;8.796;2024-01-16T03:20:29;2.50;35.90
47845;DHT22;33605;48.822;8.796;2024-01-16T03:22:55;2.50;35.90
47845;DHT22;33605;48.822;8.796;2024-01-16T03:25:21;2.40;35.90
47845;DHT22;33605;48.822;8.796;2024-01-16T03:27:50;2.40;35.90
47845;DHT22;33605;48.822;8.796;2024-01-16T03:30:16;2.40;35.90
47845;DHT22;33605;48.822;8.796;2024-01-16T03:32:41;2.40;35.90
47845;DHT22;33605;48.822;8.796;2024-01-16T03:35:07;2.30;35.80
47845;DHT22;33605;48.822;8.796;2024-01-16T03:37:33;2.30;35.80
47845;DHT22;33605;48.822;8.796;2024-01-16T03:40:00;2.30;35.80
47845;DHT22;33605;48.822;8.796;2024-01-16T03:42:25;2.30;35.80
47845;DHT22;33605;48.822;8.796;2024-01-16T03:44:53;2.30;35.80
47845;DHT22;33605;48.822;8.796;2024-01-16T03:47:19;2.30;35.80
47845;DHT22;33605;48.822;8.796;2024-01-16T03:49:45;2.20;35.60
47845;DHT22;33605;48.822;8.796;2024-01-16T03:52:12;2.20;35.60
47845;DHT22;33605;48.822;8.796;2024-01-16T03:54:37;2.20;35.60
47845;DHT22;33605;48.822;8.796;2024-01-16T03:57:03;2.20;35.60
47845;DHT22;33605;48.822;8.796;2024-01-16T03:59:29;2.20;35.60
47845;DHT22;33605;48.822;8.796;2024-01-16T04:01:54;2.20;35.60
47845;DHT22;33605;48.822;8.796;2024-01-16T04:04:23;2.20;35.50
47845;DHT22;33605;48.822;8.796;2024-01-16T04:06:49;2.20;35.50
47845;DHT22;33605;48.822;8.796;2024-01-16T04:09:15;2.20;35.40
47845;DHT22;33605;48.822;8.796;2024-01-16T04:11:41;2.20;35.40
47845;DHT22;33605;48.822;8.796;2024-01-16T04:14:06;2.20;35.40
47845;DHT22;33605;48.822;8.796;2024-01-16T04:16:34;2.10;35.40
47845;DHT22;33605;48.822;8.796;2024-01-16T04:19:03;2.20;35.50
47845;DHT22;33605;48.822;8.796;2024-01-16T04:21:29;2.10;35.40
47845;DHT22;33605;48.822;8.796;2024-01-16T04:23:57;2.10;35.40
47845;DHT22;33605;48.822;8.796;2024-01-16T04:26:22;2.00;35.20
47845;DHT22;33605;48.822;8.796;2024-01-16T04:28:49;2.00;35.20
47845;DHT22;33605;48.822;8.796;2024-01-16T04:31:14;2.00;35.20
47845;DHT22;33605;48.822;8.796;2024-01-16T04:33:43;1.90;35.10
47845;DHT22;33605;48.822;8.796;2024-01-16T04:36:11;1.90;35.10
47845;DHT22;33605;48.822;8.796;2024-01-16T04:38:39;1.90;35.10
47845;DHT22;33605;48.822;8.796;2024-01-16T04:41:05;1.80;35.00
47845;DHT22;33605;48.822;8.796;2024-01-16T04:43:31;1.80;35.00
47845;DHT22;33605;48.822;8.796;2024-01-16T04:45:59;1.80;35.00
47845;DHT22;33605;48.822;8.796;2024-01-16T04:48:25;1.70;35.00
47845;DHT22;33605;48.822;8.796;2024-01-16T04:50:53;1.70;35.00
47845;DHT22;33605;48.822;8.796;2024-01-16T04:53:19;1.60;35.00
47845;DHT22;33605;48.822;8.796;2024-01-16T04:55:45;1.60;35.00
47845;DHT22;33605;48.822;8.796;2024-01-16T04:58:11;1.60;34.90
47845;DHT22;33605;48.822;8.796;2024-01-16T05:00:36;1.50;34.90
47845;DHT22;33605;48.822;8.796;2024-01-16T05:03:05;1.50;35.00
47845;DHT22;33605;48.822;8.796;2024-01-16T05:05:31;1.50;34.90
47845;DHT22;33605;48.822;8.796;2024-01-16T05:07:56;1.40;34.80
47845;DHT22;33605;48.822;8.796;2024-01-16T05:10:22;1.50;35.00
47845;DHT22;33605;48.822;8.796;2024-01-16T05:12:48;1.40;34.90
47845;DHT22;33605;48.822;8.796;2024-01-16T05:15:16;1.40;35.00
47845;DHT22;33605;48.822;8.796;2024-01-16T05:17:42;1.30;35.00
47845;DHT22;33605;48.822;8.796;2024-01-16T05:20:11;1.30;35.10
47845;DHT22;33605;48.822;8.796;2024-01-16T05:22:37;1.20;35.00
47845;DHT22;33605;48.822;8.796;2024-01-16T05:25:05;1.20;35.00
47845;DHT22;33605;48.822;8.796;2024-01-16T05:27:33;1.20;35.00
47845;DHT22;33605;48.822;8.796;2024-01-16T05:29:58;1.10;35.00
47845;DHT22;33605;48.822;8.796;2024-01-16T05:32:24;1.10;34.90
47845;DHT22;33605;48.822;8.796;2024-01-16T05:34:50;1.10;34.80
47845;DHT22;33605;48.822;8.796;2024-01-16T05:37:17;1.00;34.70
47845;DHT22;33605;48.822;8.796;2024-01-16T05:39:42;1.10;34.80
47845;DHT22;33605;48.822;8.796;2024-01-16T05:42:11;1.00;34.70
47845;DHT22;33605;48.822;8.796;2024-01-16T05:44:41;1.00;34.80
47845;DHT22;33605;48.822;8.796;2024-01-16T05:47:06;1.00;34.80
47845;DHT22;33605;48.822;8.796;2024-01-16T05:49:32;1.00;34.80
47845;DHT22;33605;48.822;8.796;2024-01-16T05:51:58;1.00;34.90
47845;DHT22;33605;48.822;8.796;2024-01-16T05:54:24;1.00;34.90
47845;DHT22;33605;48.822;8.796;2024-01-16T05:56:52;1.00;35.10
47845;DHT22;33605;48.822;8.796;2024-01-16T05:59:18;1.00;35.20
47845;DHT22;33605;48.822;8.796;2024-01-16T06:01:43;1.00;35.20
47845;DHT22;33605;48.822;8.796;2024-01-16T06:04:14;1.00;35.10
47845;DHT22;33605;48.822;8.796;2024-01-16T06:06:41;1.00;35.10
47845;DHT22;33605;48.822;8.796;2024-01-16T06:09:10;1.00;35.10
47845;DHT22;33605;48.822;8.796;2024-01-16T06:11:41;1.00;35.00
47845;DHT22;33605;48.822;8.796;2024-01-16T06:14:08;1.00;35.00
47845;DHT22;33605;48.822;8.796;2024-01-16T06:16:33;1.00;34.90
47845;DHT22;33605;48.822;8.796;2024-01-16T06:19:02;1.00;34.90
47845;DHT22;33605;48.822;8.796;2024-01-16T06:21:33;0.90;34.80
47845;DHT22;33605;48.822;8.796;2024-01-16T06:23:59;1.00;34.90
47845;DHT22;33605;48.822;8.796;2024-01-16T06:26:24;0.90;34.80
47845;DHT22;33605;48.822;8.796;2024-01-16T06:28:52;0.90;34.70
47845;DHT22;33605;48.822;8.796;2024-01-16T06:31:21;0.80;34.60
47845;DHT22;33605;48.822;8.796;2024-01-16T06:33:47;0.80;34.60
47845;DHT22;33605;48.822;8.796;2024-01-16T06:36:12;0.80;34.50
47845;DHT22;33605;48.822;8.796;2024-01-16T06:38:39;0.80;34.50
47845;DHT22;33605;48.822;8.796;2024-01-16T06:41:05;0.70;34.40
47845;DHT22;33605;48.822;8.796;2024-01-16T06:43:31;0.70;34.40
47845;DHT22;33605;48.822;8.796;2024-01-16T06:45:56;0.70;34.40
47845;DHT22;33605;48.822;8.796;2024-01-16T06:48:22;0.60;34.40
47845;DHT22;33605;48.822;8.796;2024-01-16T06:50:48;0.60;34.40
47845;DHT22;33605;48.822;8.796;2024-01-16T06:53:13;0.60;34.50
47845;DHT22;33605;48.822;8.796;2024-01-16T06:55:39;0.60;34.60
47845;DHT22;33605;48.822;8.796;2024-01-16T06:58:04;0.50;34.50
47845;DHT22;33605;48.822;8.796;2024-01-16T07:00:30;0.50;34.60
47845;DHT22;33605;48.822;8.796;2024-01-16T07:02:56;0.50;34.80
47845;DHT22;33605;48.822;8.796;2024-01-16T07:05:22;0.50;35.00
47845;DHT22;33605;48.822;8.796;2024-01-16T07:07:48;0.50;35.10
47845;DHT22;33605;48.822;8.796;2024-01-16T07:10:14;0.50;35.10
47845;DHT22;33605;48.822;8.796;2024-01-16T07:12:44;0.50;35.10
47845;DHT22;33605;48.822;8.796;2024-01-16T07:15:10;0.50;35.10
47845;DHT22;33605;48.822;8.796;2024-01-16T07:17:35;0.50;35.00
47845;DHT22;33605;48.822;8.796;2024-01-16T07:20:01;0.60;35.10
47845;DHT22;33605;48.822;8.796;2024-01-16T07:22:27;0.60;35.00
47845;DHT22;33605;48.822;8.796;2024-01-16T07:24:53;0.60;35.00
47845;DHT22;33605;48.822;8.796;2024-01-16T07:27:18;0.60;35.00
47845;DHT22;33605;48.822;8.796;2024-01-16T07:29:44;0.60;35.00
47845;DHT22;33605;48.822;8.796;2024-01-16T07:32:11;0.60;34.90
47845;DHT22;33605;48.822;8.796;2024-01-16T07:34:36;0.60;34.90
47845;DHT22;33605;48.822;8.796;2024-01-16T07:37:02;0.60;34.90
47845;DHT22;33605;48.822;8.796;2024-01-16T07:39:27;0.60;34.90
47845;DHT22;33605;48.822;8.796;2024-01-16T07:41:53;0.60;35.00
47845;DHT22;33605;48.822;8.796;2024-01-16T07:44:19;0.60;35.00
47845;DHT22;33605;48.822;8.796;2024-01-16T07:46:44;0.60;35.10
47845;DHT22;33605;48.822;8.796;2024-01-16T07:49:10;0.70;35.10
47845;DHT22;33605;48.822;8.796;2024-01-16T07:51:36;0.70;35.10
47845;DHT22;33605;48.822;8.796;2024-01-16T07:54:06;0.70;35.10
47845;DHT22;33605;48.822;8.796;2024-01-16T07:56:32;0.70;35.10
47845;DHT22;33605;48.822;8.796;2024-01-16T07:58:59;0.70;35.00
47845;DHT22;33605;48.822;8.796;2024-01-16T08:01:25;0.80;35.10
47845;DHT22;33605;48.822;8.796;2024-01-16T08:03:50;0.80;35.00
47845;DHT22;33605;48.822;8.796;2024-01-16T08:06:16;0.80;34.90
47845;DHT22;33605;48.822;8.796;2024-01-16T08:08:42;0.90;34.90
47845;DHT22;33605;48.822;8.796;2024-01-16T08:11:08;0.90;34.90
47845;DHT22;33605;48.822;8.796;2024-01-16T08:13:33;0.90;35.00
47845;DHT22;33605;48.822;8.796;2024-01-16T08:15:59;1.00;35.10
47845;DHT22;33605;48.822;8.796;2024-01-16T08:18:25;1.10;35.50
47845;DHT22;33605;48.822;8.796;2024-01-16T08:20:50;1.10;35.20
47845;DHT22;33605;48.822;8.796;2024-01-16T08:23:16;1.20;35.20
47845;DHT22;33605;48.822;8.796;2024-01-16T08:25:41;1.30;35.30
47845;DHT22;33605;48.822;8.796;2024-01-16T08:28:07;1.30;35.20
47845;DHT22;33605;48.822;8.796;2024-01-16T08:30:33;1.40;35.20
47845;DHT22;33605;48.822;8.796;2024-01-16T08:32:58;1.50;35.20
47845;DHT22;33605;48.822;8.796;2024-01-16T08:35:24;1.60;35.20
47845;DHT22;33605;48.822;8.796;2024-01-16T08:37:50;1.70;35.30
47845;DHT22;33605;48.822;8.796;2024-01-16T08:40:15;1.70;35.30
47845;DHT22;33605;48.822;8.796;2024-01-16T08:42:41;1.80;35.20
47845;DHT22;33605;48.822;8.796;2024-01-16T08:45:07;1.90;35.20
47845;DHT22;33605;48.822;8.796;2024-01-16T08:47:32;1.90;35.10
47845;DHT22;33605;48.822;8.796;2024-01-16T08:49:58;2.00;35.10
47845;DHT22;33605;48.822;8.796;2024-01-16T08:52:23;2.10;35.10
47845;DHT22;33605;48.822;8.796;2024-01-16T08:54:49;2.20;35.20
47845;DHT22;33605;48.822;8.796;2024-01-16T08:57:15;2.30;35.20
47845;DHT22;33605;48.822;8.796;2024-01-16T08:59:41;2.30;35.80
47845;DHT22;33605;48.822;8.796;2024-01-16T09:02:07;2.40;35.20
47845;DHT22;33605;48.822;8.796;2024-01-16T09:04:32;2.50;35.20
47845;DHT22;33605;48.822;8.796;2024-01-16T09:06:59;2.60;35.20
47845;DHT22;33605;48.822;8.796;2024-01-16T09:09:24;2.70;35.10
47845;DHT22;33605;48.822;8.796;2024-01-16T09:11:50;2.80;35.00
47845;DHT22;33605;48.822;8.796;2024-01-16T09:14:15;2.90;35.00
47845;DHT22;33605;48.822;8.796;2024-01-16T09:16:41;3.00;34.80
47845;DHT22;33605;48.822;8.796;2024-01-16T09:19:07;3.10;34.80
47845;DHT22;33605;48.822;8.796;2024-01-16T09:21:34;3.20;34.80
47845;DHT22;33605;48.822;8.796;2024-01-16T09:45:56;3.20;34.30
47845;DHT22;33605;48.822;8.796;2024-01-16T09:48:28;4.30;34.50
47845;DHT22;33605;48.822;8.796;2024-01-16T16:30:49;30.80;23.80
47845;DHT22;33605;48.822;8.796;2024-01-16T17:39:13;10.00;16.80
47845;DHT22;33605;48.822;8.796;2024-01-16T17:41:40;5.40;21.20
47845;DHT22;33605;48.822;8.796;2024-01-16T17:44:06;5.10;21.20
47845;DHT22;33605;48.822;8.796;2024-01-16T17:46:32;5.00;21.40
47845;DHT22;33605;48.822;8.796;2024-01-16T17:48:57;4.90;21.40
47845;DHT22;33605;48.822;8.796;2024-01-16T17:51:24;4.80;21.60
47845;DHT22;33605;48.822;8.796;2024-01-16T17:53:50;4.70;21.70
47845;DHT22;33605;48.822;8.796;2024-01-16T17:56:16;4.60;21.70
47845;DHT22;33605;48.822;8.796;2024-01-16T17:58:42;4.60;21.70
47845;DHT22;33605;48.822;8.796;2024-01-16T18:01:08;4.50;21.70
47845;DHT22;33605;48.822;8.796;2024-01-16T18:03:38;4.40;21.70
47845;DHT22;33605;48.822;8.796;2024-01-16T18:06:04;4.30;21.60
47845;DHT22;33605;48.822;8.796;2024-01-16T18:08:33;4.20;21.60
47845;DHT22;33605;48.822;8.796;2024-01-16T18:10:59;4.20;22.30
47845;DHT22;33605;48.822;8.796;2024-01-16T18:13:25;4.10;21.90
47845;DHT22;33605;48.822;8.796;2024-01-16T18:15:50;4.00;22.00
47845;DHT22;33605;48.822;8.796;2024-01-16T18:18:16;3.90;22.10
47845;DHT22;33605;48.822;8.796;2024-01-16T18:20:42;3.80;22.10
47845;DHT22;33605;48.822;8.796;2024-01-16T18:23:08;3.70;22.20
47845;DHT22;33605;48.822;8.796;2024-01-16T18:25:36;3.70;22.30
47845;DHT22;33605;48.822;8.796;2024-01-16T18:28:01;3.60;22.20
47845;DHT22;33605;48.822;8.796;2024-01-16T18:30:29;3.50;22.10
47845;DHT22;33605;48.822;8.796;2024-01-16T18:32:57;3.40;22.00
47845;DHT22;33605;48.822;8.796;2024-01-16T18:35:23;3.20;21.90
47845;DHT22;33605;48.822;8.796;2024-01-16T18:37:48;3.10;21.90
47845;DHT22;33605;48.822;8.796;2024-01-16T18:40:18;3.10;21.90
47845;DHT22;33605;48.822;8.796;2024-01-16T18:42:46;3.00;22.00
47845;DHT22;33605;48.822;8.796;2024-01-16T18:45:12;2.90;22.00
47845;DHT22;33605;48.822;8.796;2024-01-16T18:47:38;2.90;22.20
47845;DHT22;33605;48.822;8.796;2024-01-16T18:50:05;2.80;22.30
47845;DHT22;33605;48.822;8.796;2024-01-16T18:52:38;2.70;22.40
47845;DHT22;33605;48.822;8.796;2024-01-16T18:55:08;2.70;22.50
47845;DHT22;33605;48.822;8.796;2024-01-16T18:57:42;2.70;22.60
47845;DHT22;33605;48.822;8.796;2024-01-16T19:00:12;2.60;22.70
47845;DHT22;33605;48.822;8.796;2024-01-16T19:02:43;2.60;22.70
47845;DHT22;33605;48.822;8.796;2024-01-16T19:05:12;2.50;22.70
47845;DHT22;33605;48.822;8.796;2024-01-16T19:07:43;2.40;22.70
47845;DHT22;33605;48.822;8.796;2024-01-16T19:10:10;2.40;22.70
47845;DHT22;33605;48.822;8.796;2024-01-16T19:12:42;2.30;22.70
47845;DHT22;33605;48.822;8.796;2024-01-16T19:15:13;2.20;22.70
47845;DHT22;33605;48.822;8.796;2024-01-16T19:17:43;2.20;22.90
47845;DHT22;33605;48.822;8.796;2024-01-16T19:20:12;2.10;22.90
47845;DHT22;33605;48.822;8.796;2024-01-16T19:22:39;2.00;22.90
47845;DHT22;33605;48.822;8.796;2024-01-16T19:25:05;2.00;23.00
47845;DHT22;33605;48.822;8.796;2024-01-16T19:27:32;1.90;23.00
47845;DHT22;33605;48.822;8.796;2024-01-16T19:29:58;1.80;23.00
47845;DHT22;33605;48.822;8.796;2024-01-16T19:32:29;1.70;23.00
47845;DHT22;33605;48.822;8.796;2024-01-16T19:34:54;1.70;23.20
47845;DHT22;33605;48.822;8.796;2024-01-16T19:37:20;1.60;23.20
47845;DHT22;33605;48.822;8.796;2024-01-16T19:39:46;1.50;23.20
47845;DHT22;33605;48.822;8.796;2024-01-16T19:42:12;1.50;23.40
47845;DHT22;33605;48.822;8.796;2024-01-16T19:44:41;1.40;23.40
47845;DHT22;33605;48.822;8.796;2024-01-16T19:47:06;1.30;23.40
47845;DHT22;33605;48.822;8.796;2024-01-16T19:49:36;1.30;23.40
47845;DHT22;33605;48.822;8.796;2024-01-16T19:52:02;1.20;23.40
47845;DHT22;33605;48.822;8.796;2024-01-16T19:54:28;1.10;23.40
47845;DHT22;33605;48.822;8.796;2024-01-16T19:56:53;1.10;23.50
47845;DHT22;33605;48.822;8.796;2024-01-16T19:59:19;1.00;23.40
47845;DHT22;33605;48.822;8.796;2024-01-16T20:01:45;1.00;23.40
47845;DHT22;33605;48.822;8.796;2024-01-16T20:04:11;0.80;23.30
47845;DHT22;33605;48.822;8.796;2024-01-16T20:06:37;0.80;23.40
47845;DHT22;33605;48.822;8.796;2024-01-16T20:09:06;0.70;23.40
47845;DHT22;33605;48.822;8.796;2024-01-16T20:11:35;0.70;23.50
47845;DHT22;33605;48.822;8.796;2024-01-16T20:14:01;0.60;23.50
47845;DHT22;33605;48.822;8.796;2024-01-16T20:16:28;0.60;24.10
47845;DHT22;33605;48.822;8.796;2024-01-16T20:19:00;0.50;23.70
47845;DHT22;33605;48.822;8.796;2024-01-16T20:21:26;0.50;23.70
47845;DHT22;33605;48.822;8.796;2024-01-16T20:23:52;0.40;23.70
47845;DHT22;33605;48.822;8.796;2024-01-16T20:26:19;0.40;23.80
47845;DHT22;33605;48.822;8.796;2024-01-16T20:28:48;0.40;23.90
47845;DHT22;33605;48.822;8.796;2024-01-16T20:31:14;0.30;23.80
47845;DHT22;33605;48.822;8.796;2024-01-16T20:33:44;0.30;23.90
47845;DHT22;33605;48.822;8.796;2024-01-16T20:36:14;0.30;24.00
47845;DHT22;33605;48.822;8.796;2024-01-16T20:38:44;0.30;24.10
47845;DHT22;33605;48.822;8.796;2024-01-16T20:41:10;0.20;24.20
47845;DHT22;33605;48.822;8.796;2024-01-16T20:43:39;0.20;24.20
47845;DHT22;33605;48.822;8.796;2024-01-16T20:46:05;0.10;24.20
47845;DHT22;33605;48.822;8.796;2024-01-16T20:48:31;0.10;24.10
47845;DHT22;33605;48.822;8.796;2024-01-16T20:50:58;0.10;24.20
47845;DHT22;33605;48.822;8.796;2024-01-16T20:53:25;0.00;24.20
47845;DHT22;33605;48.822;8.796;2024-01-16T20:55:55;0.00;24.20
47845;DHT22;33605;48.822;8.796;2024-01-16T20:58:21;-0.20;24.20
47845;DHT22;33605;48.822;8.796;2024-01-16T21:00:47;-0.20;24.20
47845;DHT22;33605;48.822;8.796;2024-01-16T21:03:17;-0.30;24.40
47845;DHT22;33605;48.822;8.796;2024-01-16T21:05:49;-0.40;24.60
47845;DHT22;33605;48.822;8.796;2024-01-16T21:08:20;-0.40;24.70
47845;DHT22;33605;48.822;8.796;2024-01-16T21:10:46;-0.50;24.70
47845;DHT22;33605;48.822;8.796;2024-01-16T21:13:13;-0.60;24.70
47845;DHT22;33605;48.822;8.796;2024-01-16T21:15:40;-0.60;24.70
47845;DHT22;33605;48.822;8.796;2024-01-16T21:18:05;-0.60;24.70
47845;DHT22;33605;48.822;8.796;2024-01-16T21:20:31;-0.70;24.70
47845;DHT22;33605;48.822;8.796;2024-01-16T21:22:57;-0.70;24.80
47845;DHT22;33605;48.822;8.796;2024-01-16T21:25:22;-0.60;24.90
47845;DHT22;33605;48.822;8.796;2024-01-16T21:27:49;-0.70;24.90
47845;DHT22;33605;48.822;8.796;2024-01-16T21:30:20;-0.70;24.90
47845;DHT22;33605;48.822;8.796;2024-01-16T21:32:46;-0.80;24.70
47845;DHT22;33605;48.822;8.796;2024-01-16T21:35:11;-0.70;24.90
47845;DHT22;33605;48.822;8.796;2024-01-16T21:37:38;-0.80;24.80
47845;DHT22;33605;48.822;8.796;2024-01-16T21:40:04;-0.80;24.90
47845;DHT22;33605;48.822;8.796;2024-01-16T21:42:34;-0.80;24.90
47845;DHT22;33605;48.822;8.796;2024-01-16T21:45:03;-0.90;24.90
47845;DHT22;33605;48.822;8.796;2024-01-16T21:47:29;-0.90;24.90
47845;DHT22;33605;48.822;8.796;2024-01-16T21:49:54;-0.90;25.00
47845;DHT22;33605;48.822;8.796;2024-01-16T21:52:21;-0.90;25.00
47845;DHT22;33605;48.822;8.796;2024-01-16T21:54:47;-0.90;25.10
47845;DHT22;33605;48.822;8.796;2024-01-16T21:57:13;-0.90;25.10
47845;DHT22;33605;48.822;8.796;2024-01-16T21:59:39;-0.90;25.10
47845;DHT22;33605;48.822;8.796;2024-01-16T22:02:06;-0.90;25.10
47845;DHT22;33605;48.822;8.796;2024-01-16T22:04:38;-0.90;25.10
47845;DHT22;33605;48.822;8.796;2024-01-16T22:07:03;-0.90;25.10
47845;DHT22;33605;48.822;8.796;2024-01-16T22:09:29;-0.90;25.10
47845;DHT22;33605;48.822;8.796;2024-01-16T22:11:55;-0.90;25.20
47845;DHT22;33605;48.822;8.796;2024-01-16T22:14:21;-0.90;25.20
47845;DHT22;33605;48.822;8.796;2024-01-16T22:16:47;-0.90;25.20
47845;DHT22;33605;48.822;8.796;2024-01-16T22:19:13;-0.90;25.20
47845;DHT22;33605;48.822;8.796;2024-01-16T22:21:40;-0.90;25.20
47845;DHT22;33605;48.822;8.796;2024-01-16T22:24:08;-0.90;25.30
47845;DHT22;33605;48.822;8.796;2024-01-16T22:26:34;-0.90;25.40
47845;DHT22;33605;48.822;8.796;2024-01-16T22:28:59;-0.90;25.40
47845;DHT22;33605;48.822;8.796;2024-01-16T22:31:25;-0.90;25.50
47845;DHT22;33605;48.822;8.796;2024-01-16T22:33:51;-0.90;25.50
47845;DHT22;33605;48.822;8.796;2024-01-16T22:36:17;-0.90;25.50
47845;DHT22;33605;48.822;8.796;2024-01-16T22:38:43;-0.90;25.50
47845;DHT22;33605;48.822;8.796;2024-01-16T22:41:11;-0.90;25.60
47845;DHT22;33605;48.822;8.796;2024-01-16T22:43:40;-1.00;25.60
47845;DHT22;33605;48.822;8.796;2024-01-16T22:46:09;-1.00;25.60
47845;DHT22;33605;48.822;8.796;2024-01-16T22:48:36;-1.00;25.50
47845;DHT22;33605;48.822;8.796;2024-01-16T22:51:02;-1.00;25.60
47845;DHT22;33605;48.822;8.796;2024-01-16T22:53:28;-1.00;25.60
47845;DHT22;33605;48.822;8.796;2024-01-16T22:55:54;-1.00;25.60
47845;DHT22;33605;48.822;8.796;2024-01-16T22:58:20;-1.00;25.60
47845;DHT22;33605;48.822;8.796;2024-01-16T23:00:46;-1.00;25.60
47845;DHT22;33605;48.822;8.796;2024-01-16T23:03:19;-1.10;25.60
47845;DHT22;33605;48.822;8.796;2024-01-16T23:05:47;-1.10;25.60
47845;DHT22;33605;48.822;8.796;2024-01-16T23:08:13;-1.10;25.70
47845;DHT22;33605;48.822;8.796;2024-01-16T23:10:39;-1.10;25.70
47845;DHT22;33605;48.822;8.796;2024-01-16T23:13:04;-1.10;25.80
47845;DHT22;33605;48.822;8.796;2024-01-16T23:15:30;-1.10;25.80
47845;DHT22;33605;48.822;8.796;2024-01-16T23:17:59;-1.10;25.80
47845;DHT22;33605;48.822;8.796;2024-01-16T23:20:24;-1.10;25.90
47845;DHT22;33605;48.822;8.796;2024-01-16T23:22:53;-1.20;25.90
47845;DHT22;33605;48.822;8.796;2024-01-16T23:25:20;-1.20;25.90
47845;DHT22;33605;48.822;8.796;2024-01-16T23:27:46;-1.20;26.00
47845;DHT22;33605;48.822;8.796;2024-01-16T23:30:15;-1.20;26.10
47845;DHT22;33605;48.822;8.796;2024-01-16T23:32:41;-1.10;26.20
47845;DHT22;33605;48.822;8.796;2024-01-16T23:35:07;-1.10;26.20
47845;DHT22;33605;48.822;8.796;2024-01-16T23:37:35;-1.20;26.20
47845;DHT22;33605;48.822;8.796;2024-01-16T23:40:02;-1.10;26.20
47845;DHT22;33605;48.822;8.796;2024-01-16T23:42:31;-1.10;26.20
47845;DHT22;33605;48.822;8.796;2024-01-16T23:44:57;-1.10;26.20